sensor_id;sensor_type;location;lat;lon;timestamp;pressure;altitude;pressure_sealevel;temperature;humidity
75936;BME280;64614;32.062;34.834;2023-06-10T00:00:46;99908.47;;;29.51;49.66
75936;BME280;64614;32.062;34.834;2023-06-10T00:03:11;99906.09;;;29.49;49.89
75936;BME280;64614;32.062;34.834;2023-06-10T00:05:38;99920.31;;;29.48;49.82
75936;BME280;64614;32.062;34.834;2023-06-10T00:08:05;99924.16;;;29.39;49.25
75936;BME280;64614;32.062;34.834;2023-06-10T00:10:37;99920.88;;;29.30;49.66
75936;BME280;64614;32.062;34.834;2023-06-10T00:13:05;99925.88;;;29.21;49.07
75936;BME280;64614;32.062;34.834;2023-06-10T00:15:34;99925.72;;;29.10;49.19
75936;BME280;64614;32.062;34.834;2023-06-10T00:18:00;99922.44;;;29.01;49.62
75936;BME280;64614;32.062;34.834;2023-06-10T00:20:28;99933.44;;;28.97;49.79
75936;BME280;64614;32.062;34.834;2023-06-10T00:22:55;99925.13;;;28.93;50.12
75936;BME280;64614;32.062;34.834;2023-06-10T00:25:23;99927.78;;;28.86;49.60
75936;BME280;64614;32.062;34.834;2023-06-10T00:27:48;99930.44;;;28.79;49.90
75936;BME280;64614;32.062;34.834;2023-06-10T00:30:14;99923.28;;;28.74;50.36
75936;BME280;64614;32.062;34.834;2023-06-10T00:32:40;99920.47;;;28.71;50.46
75936;BME280;64614;32.062;34.834;2023-06-10T00:35:06;99914.13;;;28.70;50.37
75936;BME280;64614;32.062;34.834;2023-06-10T00:37:32;99923.88;;;28.64;49.95
75936;BME280;64614;32.062;34.834;2023-06-10T00:40:04;99924.50;;;28.54;50.11
75936;BME280;64614;32.062;34.834;2023-06-10T00:42:32;99916.59;;;28.52;50.64
75936;BME280;64614;32.062;34.834;2023-06-10T00:44:57;99923.66;;;28.50;51.10
75936;BME280;64614;32.062;34.834;2023-06-10T00:47:23;99923.66;;;28.50;51.34
75936;BME280;64614;32.062;34.834;2023-06-10T00:49:52;99922.38;;;28.43;50.00
75936;BME280;64614;32.062;34.834;2023-06-10T00:52:18;99927.78;;;28.36;50.08
75936;BME280;64614;32.062;34.834;2023-06-10T00:54:45;99939.59;;;28.33;50.55
75936;BME280;64614;32.062;34.834;2023-06-10T00:57:12;99943.50;;;28.32;51.27
75936;BME280;64614;32.062;34.834;2023-06-10T00:59:39;99937.59;;;28.34;51.43
75936;BME280;64614;32.062;34.834;2023-06-10T01:02:05;99945.44;;;28.32;50.72
75936;BME280;64614;32.062;34.834;2023-06-10T01:04:31;99944.56;;;28.24;50.15
75936;BME280;64614;32.062;34.834;2023-06-10T01:07:05;99947.25;;;28.20;50.74
75936;BME280;64614;32.062;34.834;2023-06-10T01:15:01;99949.63;;;28.22;50.94
75936;BME280;64614;32.062;34.834;2023-06-10T01:17:28;99952.69;;;28.17;50.62
75936;BME280;64614;32.062;34.834;2023-06-10T01:19:58;99960.13;;;28.12;50.64
75936;BME280;64614;32.062;34.834;2023-06-10T01:22:24;99964.84;;;28.12;50.16
75936;BME280;64614;32.062;34.834;2023-06-10T01:24:52;99958.16;;;28.13;50.58
75936;BME280;64614;32.062;34.834;2023-06-10T01:27:21;99970.44;;;28.16;51.18
75936;BME280;64614;32.062;34.834;2023-06-10T01:29:54;99973.47;;;28.10;50.36
75936;BME280;64614;32.062;34.834;2023-06-10T01:32:27;99965.50;;;28.05;50.25
75936;BME280;64614;32.062;34.834;2023-06-10T01:34:55;99975.31;;;28.03;50.83
75936;BME280;64614;32.062;34.834;2023-06-10T01:37:24;99976.88;;;28.04;51.20
75936;BME280;64614;32.062;34.834;2023-06-10T01:39:52;99976.53;;;28.05;51.20
75936;BME280;64614;32.062;34.834;2023-06-10T01:42:20;99988.81;;;28.08;51.49
75936;BME280;64614;32.062;34.834;2023-06-10T01:44:48;99995.56;;;28.10;50.99
75936;BME280;64614;32.062;34.834;2023-06-10T01:47:13;99989.31;;;28.13;51.52
75936;BME280;64614;32.062;34.834;2023-06-10T01:49:39;99985.03;;;28.16;51.72
75936;BME280;64614;32.062;34.834;2023-06-10T01:52:05;99981.16;;;28.21;51.78
75936;BME280;64614;32.062;34.834;2023-06-10T01:54:31;99982.38;;;28.23;51.44
75936;BME280;64614;32.062;34.834;2023-06-10T01:56:57;99986.38;;;28.26;51.29
75936;BME280;64614;32.062;34.834;2023-06-10T01:59:22;99991.97;;;28.29;51.78
75936;BME280;64614;32.062;34.834;2023-06-10T02:01:48;99995.53;;;28.30;51.77
75936;BME280;64614;32.062;34.834;2023-06-10T02:04:14;99996.75;;;28.33;51.81
75936;BME280;64614;32.062;34.834;2023-06-10T02:06:39;100009.84;;;28.36;51.56
75936;BME280;64614;32.062;34.834;2023-06-10T02:09:05;99995.66;;;28.37;51.92
75936;BME280;64614;32.062;34.834;2023-06-10T02:11:31;100008.72;;;28.40;51.99
75936;BME280;64614;32.062;34.834;2023-06-10T02:13:57;100002.84;;;28.42;51.91
75936;BME280;64614;32.062;34.834;2023-06-10T02:16:22;100001.66;;;28.43;52.18
75936;BME280;64614;32.062;34.834;2023-06-10T02:18:48;100000.94;;;28.46;51.90
75936;BME280;64614;32.062;34.834;2023-06-10T02:21:14;100011.22;;;28.49;51.50
75936;BME280;64614;32.062;34.834;2023-06-10T02:23:40;100019.16;;;28.51;52.11
75936;BME280;64614;32.062;34.834;2023-06-10T02:26:07;100007.75;;;28.52;52.13
75936;BME280;64614;32.062;34.834;2023-06-10T02:28:32;100013.72;;;28.54;52.12
75936;BME280;64614;32.062;34.834;2023-06-10T02:30:58;100020.84;;;28.55;52.32
75936;BME280;64614;32.062;34.834;2023-06-10T02:33:24;100012.16;;;28.57;52.27
75936;BME280;64614;32.062;34.834;2023-06-10T02:35:51;100014.19;;;28.60;52.37
75936;BME280;64614;32.062;34.834;2023-06-10T02:38:17;100012.22;;;28.60;52.30
75936;BME280;64614;32.062;34.834;2023-06-10T02:40:43;100015.44;;;28.63;52.54
75936;BME280;64614;32.062;34.834;2023-06-10T02:43:09;100016.97;;;28.60;51.85
75936;BME280;64614;32.062;34.834;2023-06-10T02:45:34;100015.78;;;28.61;52.03
75936;BME280;64614;32.062;34.834;2023-06-10T02:48:00;100016.97;;;28.60;51.56
75936;BME280;64614;32.062;34.834;2023-06-10T02:50:26;100016.16;;;28.59;51.90
75936;BME280;64614;32.062;34.834;2023-06-10T02:52:52;100028.81;;;28.60;51.37
75936;BME280;64614;32.062;34.834;2023-06-10T02:55:18;100030.41;;;28.61;51.31
75936;BME280;64614;32.062;34.834;2023-06-10T02:57:43;100033.53;;;28.60;51.86
75936;BME280;64614;32.062;34.834;2023-06-10T03:00:11;100043.00;;;28.59;51.62
75936;BME280;64614;32.062;34.834;2023-06-10T03:02:37;100039.06;;;28.60;52.41
75936;BME280;64614;32.062;34.834;2023-06-10T03:05:05;100050.84;;;28.57;51.68
75936;BME280;64614;32.062;34.834;2023-06-10T03:07:31;100044.38;;;28.49;51.39
75936;BME280;64614;32.062;34.834;2023-06-10T03:09:57;100056.97;;;28.46;51.65
75936;BME280;64614;32.062;34.834;2023-06-10T03:12:23;100068.00;;;28.46;51.43
75936;BME280;64614;32.062;34.834;2023-06-10T03:14:48;100066.41;;;28.45;51.83
75936;BME280;64614;32.062;34.834;2023-06-10T03:17:14;100071.94;;;28.45;51.73
75936;BME280;64614;32.062;34.834;2023-06-10T03:19:40;100064.81;;;28.44;51.51
75936;BME280;64614;32.062;34.834;2023-06-10T03:24:35;100074.34;;;28.47;51.71
75936;BME280;64614;32.062;34.834;2023-06-10T03:27:12;100071.59;;;28.47;51.53
75936;BME280;64614;32.062;34.834;2023-06-10T03:29:39;100076.75;;;28.49;51.24
75936;BME280;64614;32.062;34.834;2023-06-10T03:32:05;100074.75;;;28.49;51.20
75936;BME280;64614;32.062;34.834;2023-06-10T03:34:31;100089.38;;;28.50;51.15
75936;BME280;64614;32.062;34.834;2023-06-10T03:36:57;100088.22;;;28.51;51.04
75936;BME280;64614;32.062;34.834;2023-06-10T03:39:23;100092.59;;;28.52;51.10
75936;BME280;64614;32.062;34.834;2023-06-10T03:41:50;100089.44;;;28.53;51.45
75936;BME280;64614;32.062;34.834;2023-06-10T03:44:16;100083.94;;;28.53;51.46
75936;BME280;64614;32.062;34.834;2023-06-10T03:46:43;100097.75;;;28.53;51.12
75936;BME280;64614;32.062;34.834;2023-06-10T03:49:08;100097.38;;;28.55;51.29
75936;BME280;64614;32.062;34.834;2023-06-10T03:51:35;100097.38;;;28.55;51.48
75936;BME280;64614;32.062;34.834;2023-06-10T03:54:01;100096.19;;;28.56;51.37
75936;BME280;64614;32.062;34.834;2023-06-10T03:56:27;100100.56;;;28.57;51.32
75936;BME280;64614;32.062;34.834;2023-06-10T03:58:54;100100.56;;;28.57;51.02
75936;BME280;64614;32.062;34.834;2023-06-10T04:01:21;100110.78;;;28.56;51.36
75936;BME280;64614;32.062;34.834;2023-06-10T04:03:47;100111.63;;;28.57;51.32
75936;BME280;64614;32.062;34.834;2023-06-10T04:06:14;100110.44;;;28.58;51.26
75936;BME280;64614;32.062;34.834;2023-06-10T04:08:41;100116.31;;;28.56;51.24
75936;BME280;64614;32.062;34.834;2023-06-10T04:11:08;100107.69;;;28.58;51.26
75936;BME280;64614;32.062;34.834;2023-06-10T04:13:34;100112.78;;;28.56;51.12
75936;BME280;64614;32.062;34.834;2023-06-10T04:15:59;100113.22;;;28.58;51.22
75936;BME280;64614;32.062;34.834;2023-06-10T04:18:25;100113.22;;;28.58;51.25
75936;BME280;64614;32.062;34.834;2023-06-10T04:20:51;100121.50;;;28.58;51.38
75936;BME280;64614;32.062;34.834;2023-06-10T04:23:17;100119.53;;;28.58;51.46
75936;BME280;64614;32.062;34.834;2023-06-10T04:25:43;100119.91;;;28.57;51.54
75936;BME280;64614;32.062;34.834;2023-06-10T04:28:09;100127.03;;;28.58;51.65
75936;BME280;64614;32.062;34.834;2023-06-10T04:30:35;100126.22;;;28.57;51.72
75936;BME280;64614;32.062;34.834;2023-06-10T04:33:00;100131.38;;;28.59;51.26
75936;BME280;64614;32.062;34.834;2023-06-10T04:35:26;100130.22;;;28.60;51.45
75936;BME280;64614;32.062;34.834;2023-06-10T04:37:53;100141.28;;;28.60;51.63
75936;BME280;64614;32.062;34.834;2023-06-10T04:40:20;100138.53;;;28.60;51.43
75936;BME280;64614;32.062;34.834;2023-06-10T04:42:46;100133.78;;;28.60;51.54
75936;BME280;64614;32.062;34.834;2023-06-10T04:45:11;100129.03;;;28.61;51.46
75936;BME280;64614;32.062;34.834;2023-06-10T04:47:37;100138.53;;;28.60;51.53
75936;BME280;64614;32.062;34.834;2023-06-10T04:50:03;100138.06;;;28.58;53.35
75936;BME280;64614;32.062;34.834;2023-06-10T04:52:29;100137.69;;;28.59;53.08
75936;BME280;64614;32.062;34.834;2023-06-10T04:54:57;100134.50;;;28.57;53.54
75936;BME280;64614;32.062;34.834;2023-06-10T04:57:23;100143.22;;;28.59;53.75
75936;BME280;64614;32.062;34.834;2023-06-10T04:59:49;100142.78;;;28.57;53.46
75936;BME280;64614;32.062;34.834;2023-06-10T05:02:14;100144.75;;;28.57;53.46
75936;BME280;64614;32.062;34.834;2023-06-10T05:04:40;100154.22;;;28.56;53.78
75936;BME280;64614;32.062;34.834;2023-06-10T05:07:06;100154.59;;;28.54;53.61
75936;BME280;64614;32.062;34.834;2023-06-10T05:09:31;100159.75;;;28.56;53.63
75936;BME280;64614;32.062;34.834;2023-06-10T05:11:58;100164.47;;;28.55;53.61
75936;BME280;64614;32.062;34.834;2023-06-10T05:14:24;100160.53;;;28.56;53.30
75936;BME280;64614;32.062;34.834;2023-06-10T05:16:49;100163.72;;;28.58;53.70
75936;BME280;64614;32.062;34.834;2023-06-10T05:19:15;100175.22;;;28.60;53.39
75936;BME280;64614;32.062;34.834;2023-06-10T05:21:44;100174.84;;;28.62;53.09
75936;BME280;64614;32.062;34.834;2023-06-10T05:24:10;100171.34;;;28.65;53.24
75936;BME280;64614;32.062;34.834;2023-06-10T05:26:36;100163.84;;;28.66;53.15
75936;BME280;64614;32.062;34.834;2023-06-10T05:29:07;100174.19;;;28.69;53.56
75936;BME280;64614;32.062;34.834;2023-06-10T05:31:33;100173.50;;;28.72;53.67
75936;BME280;64614;32.062;34.834;2023-06-10T05:33:59;100175.09;;;28.73;53.65
75936;BME280;64614;32.062;34.834;2023-06-10T05:36:26;100170.78;;;28.75;53.44
75936;BME280;64614;32.062;34.834;2023-06-10T05:38:52;100183.88;;;28.79;53.49
75936;BME280;64614;32.062;34.834;2023-06-10T05:41:17;100179.94;;;28.80;53.26
75936;BME280;64614;32.062;34.834;2023-06-10T05:43:43;100181.97;;;28.83;53.32
75936;BME280;64614;32.062;34.834;2023-06-10T05:46:09;100177.69;;;28.85;53.59
75936;BME280;64614;32.062;34.834;2023-06-10T05:48:34;100180.09;;;28.87;53.61
75936;BME280;64614;32.062;34.834;2023-06-10T05:51:00;100177.75;;;28.89;53.76
75936;BME280;64614;32.062;34.834;2023-06-10T05:53:25;100183.72;;;28.91;53.41
75936;BME280;64614;32.062;34.834;2023-06-10T05:55:51;100189.66;;;28.93;53.39
75936;BME280;64614;32.062;34.834;2023-06-10T05:58:19;100185.75;;;28.94;53.52
75936;BME280;64614;32.062;34.834;2023-06-10T06:00:45;100195.25;;;28.97;53.28
75936;BME280;64614;32.062;34.834;2023-06-10T06:03:12;100196.47;;;28.99;53.54
75936;BME280;64614;32.062;34.834;2023-06-10T06:05:39;100189.78;;;29.00;53.55
75936;BME280;64614;32.062;34.834;2023-06-10T06:08:05;100185.06;;;29.01;53.58
75936;BME280;64614;32.062;34.834;2023-06-10T06:10:31;100197.38;;;29.03;53.41
75936;BME280;64614;32.062;34.834;2023-06-10T06:12:58;100189.84;;;29.04;53.44
75936;BME280;64614;32.062;34.834;2023-06-10T06:15:24;100193.44;;;29.04;53.24
75936;BME280;64614;32.062;34.834;2023-06-10T06:17:51;100197.84;;;29.09;53.43
75936;BME280;64614;32.062;34.834;2023-06-10T06:20:20;100202.19;;;29.10;53.13
75936;BME280;64614;32.062;34.834;2023-06-10T06:22:46;100194.72;;;29.11;53.47
75936;BME280;64614;32.062;34.834;2023-06-10T06:25:11;100202.25;;;29.14;53.29
75936;BME280;64614;32.062;34.834;2023-06-10T06:27:37;100205.84;;;29.14;53.05
75936;BME280;64614;32.062;34.834;2023-06-10T06:30:03;100212.16;;;29.15;52.97
75936;BME280;64614;32.062;34.834;2023-06-10T06:32:29;100211.81;;;29.16;53.30
75936;BME280;64614;32.062;34.834;2023-06-10T06:34:56;100206.69;;;29.18;53.13
75936;BME280;64614;32.062;34.834;2023-06-10T06:37:22;100207.13;;;29.20;53.04
75936;BME280;64614;32.062;34.834;2023-06-10T06:39:52;100210.69;;;29.21;53.15
75936;BME280;64614;32.062;34.834;2023-06-10T06:42:18;100215.47;;;29.24;52.91
75936;BME280;64614;32.062;34.834;2023-06-10T06:44:45;100210.81;;;29.28;52.74
75936;BME280;64614;32.062;34.834;2023-06-10T06:47:11;100217.22;;;29.32;52.99
75936;BME280;64614;32.062;34.834;2023-06-10T06:49:37;100213.72;;;29.35;52.64
75936;BME280;64614;32.062;34.834;2023-06-10T06:52:04;100215.75;;;29.38;52.77
75936;BME280;64614;32.062;34.834;2023-06-10T06:54:30;100218.53;;;29.38;52.80
75936;BME280;64614;32.062;34.834;2023-06-10T06:56:56;100221.69;;;29.41;52.62
75936;BME280;64614;32.062;34.834;2023-06-10T06:59:22;100227.25;;;29.41;52.92
75936;BME280;64614;32.062;34.834;2023-06-10T07:01:48;100233.19;;;29.43;52.55
75936;BME280;64614;32.062;34.834;2023-06-10T07:04:15;100226.50;;;29.44;52.82
75936;BME280;64614;32.062;34.834;2023-06-10T07:06:40;100233.63;;;29.45;52.58
75936;BME280;64614;32.062;34.834;2023-06-10T07:09:07;100233.63;;;29.45;52.49
75936;BME280;64614;32.062;34.834;2023-06-10T07:11:36;100238.78;;;29.46;52.60
75936;BME280;64614;32.062;34.834;2023-06-10T07:14:02;100231.31;;;29.47;52.48
75936;BME280;64614;32.062;34.834;2023-06-10T07:16:28;100234.88;;;29.47;52.54
75936;BME280;64614;32.062;34.834;2023-06-10T07:18:53;100241.22;;;29.48;52.42
75936;BME280;64614;32.062;34.834;2023-06-10T07:21:19;100238.44;;;29.48;52.62
75936;BME280;64614;32.062;34.834;2023-06-10T07:23:45;100242.78;;;29.49;52.52
75936;BME280;64614;32.062;34.834;2023-06-10T07:26:11;100234.88;;;29.47;52.44
75936;BME280;64614;32.062;34.834;2023-06-10T07:28:41;100241.22;;;29.48;52.57
75936;BME280;64614;32.062;34.834;2023-06-10T07:31:07;100243.16;;;29.47;52.42
75936;BME280;64614;32.062;34.834;2023-06-10T07:33:33;100249.06;;;29.46;52.61
75936;BME280;64614;32.062;34.834;2023-06-10T07:35:59;100244.75;;;29.48;52.52
75936;BME280;64614;32.062;34.834;2023-06-10T07:38:26;100257.00;;;29.47;52.63
75936;BME280;64614;32.062;34.834;2023-06-10T07:40:52;100255.03;;;29.48;52.51
75936;BME280;64614;32.062;34.834;2023-06-10T07:43:18;100253.84;;;29.49;52.44
75936;BME280;64614;32.062;34.834;2023-06-10T07:45:44;100257.44;;;29.49;52.37
75936;BME280;64614;32.062;34.834;2023-06-10T07:48:10;100249.91;;;29.50;52.45
75936;BME280;64614;32.062;34.834;2023-06-10T07:50:37;100245.19;;;29.50;52.45
75936;BME280;64614;32.062;34.834;2023-06-10T07:53:03;100254.66;;;29.49;52.42
75936;BME280;64614;32.062;34.834;2023-06-10T07:55:29;100240.84;;;29.49;52.28
75936;BME280;64614;32.062;34.834;2023-06-10T07:57:55;100248.31;;;29.49;52.30
75936;BME280;64614;32.062;34.834;2023-06-10T08:00:21;100255.03;;;29.48;52.32
75936;BME280;64614;32.062;34.834;2023-06-10T08:02:47;100247.53;;;29.48;52.43
75936;BME280;64614;32.062;34.834;2023-06-10T08:05:13;100260.19;;;29.49;52.23
75936;BME280;64614;32.062;34.834;2023-06-10T08:07:41;100255.03;;;29.48;52.37
75936;BME280;64614;32.062;34.834;2023-06-10T08:10:07;100263.34;;;29.48;52.33
75936;BME280;64614;32.062;34.834;2023-06-10T08:12:34;100257.00;;;29.47;52.44
75936;BME280;64614;32.062;34.834;2023-06-10T08:15:00;100257.00;;;29.47;52.32
75936;BME280;64614;32.062;34.834;2023-06-10T08:17:26;100253.06;;;29.48;52.22
75936;BME280;64614;32.062;34.834;2023-06-10T08:19:52;100260.13;;;29.46;52.24
75936;BME280;64614;32.062;34.834;2023-06-10T08:22:18;100268.06;;;29.47;52.36
75936;BME280;64614;32.062;34.834;2023-06-10T08:24:43;100264.50;;;29.47;52.22
75936;BME280;64614;32.062;34.834;2023-06-10T08:27:09;100269.59;;;29.45;52.37
75936;BME280;64614;32.062;34.834;2023-06-10T08:29:36;100271.22;;;29.46;52.26
75936;BME280;64614;32.062;34.834;2023-06-10T08:32:01;100270.38;;;29.45;52.38
75936;BME280;64614;32.062;34.834;2023-06-10T08:34:28;100256.94;;;29.44;52.39
75936;BME280;64614;32.062;34.834;2023-06-10T08:36:54;100262.09;;;29.45;52.52
75936;BME280;64614;32.062;34.834;2023-06-10T08:39:23;100275.13;;;29.45;52.30
75936;BME280;64614;32.062;34.834;2023-06-10T08:42:11;100279.88;;;29.44;52.21
75936;BME280;64614;32.062;34.834;2023-06-10T08:44:40;100283.44;;;29.45;52.20
75936;BME280;64614;32.062;34.834;2023-06-10T08:47:16;100282.66;;;29.44;52.23
75936;BME280;64614;32.062;34.834;2023-06-10T08:49:45;100276.31;;;29.44;52.06
75936;BME280;64614;32.062;34.834;2023-06-10T08:52:16;100279.44;;;29.42;52.08
75936;BME280;64614;32.062;34.834;2023-06-10T08:54:46;100277.47;;;29.43;52.19
75936;BME280;64614;32.062;34.834;2023-06-10T08:57:13;100291.28;;;29.43;52.21
75936;BME280;64614;32.062;34.834;2023-06-10T08:59:40;100301.56;;;29.42;52.06
75936;BME280;64614;32.062;34.834;2023-06-10T09:02:07;100289.69;;;29.42;52.19
75936;BME280;64614;32.062;34.834;2023-06-10T09:04:34;100286.94;;;29.42;52.15
75936;BME280;64614;32.062;34.834;2023-06-10T09:07:02;100284.53;;;29.40;52.07
75936;BME280;64614;32.062;34.834;2023-06-10T09:09:28;100286.53;;;29.39;52.21
75936;BME280;64614;32.062;34.834;2023-06-10T09:11:56;100289.28;;;29.39;52.21
75936;BME280;64614;32.062;34.834;2023-06-10T09:14:21;100293.22;;;29.38;52.23
75936;BME280;64614;32.062;34.834;2023-06-10T09:16:49;100284.47;;;29.36;52.15
75936;BME280;64614;32.062;34.834;2023-06-10T09:19:16;100290.81;;;29.37;51.95
75936;BME280;64614;32.062;34.834;2023-06-10T09:21:41;100294.72;;;29.36;52.16
75936;BME280;64614;32.062;34.834;2023-06-10T09:24:07;100290.38;;;29.35;52.29
75936;BME280;64614;32.062;34.834;2023-06-10T09:26:33;100290.38;;;29.35;52.54
75936;BME280;64614;32.062;34.834;2023-06-10T09:29:08;100285.59;;;29.32;52.33
75936;BME280;64614;32.062;34.834;2023-06-10T09:31:36;100281.28;;;29.34;52.12
75936;BME280;64614;32.062;34.834;2023-06-10T09:34:07;100270.91;;;29.31;51.91
75936;BME280;64614;32.062;34.834;2023-06-10T09:36:34;100270.22;;;29.34;52.09
75936;BME280;64614;32.062;34.834;2023-06-10T09:39:00;100271.38;;;29.33;51.91
75936;BME280;64614;32.062;34.834;2023-06-10T09:41:35;100265.84;;;29.33;51.75
75936;BME280;64614;32.062;34.834;2023-06-10T09:44:01;100266.56;;;29.30;52.13
75936;BME280;64614;32.062;34.834;2023-06-10T09:46:34;100260.22;;;29.30;51.92
75936;BME280;64614;32.062;34.834;2023-06-10T09:49:00;100270.91;;;29.31;51.61
75936;BME280;64614;32.062;34.834;2023-06-10T09:51:25;100270.91;;;29.31;51.92
75936;BME280;64614;32.062;34.834;2023-06-10T09:53:51;100273.25;;;29.29;51.85
75936;BME280;64614;32.062;34.834;2023-06-10T09:56:18;100272.44;;;29.29;51.57
75936;BME280;64614;32.062;34.834;2023-06-10T09:58:45;100271.66;;;29.28;51.85
75936;BME280;64614;32.062;34.834;2023-06-10T10:01:13;100264.91;;;29.26;51.77
75936;BME280;64614;32.062;34.834;2023-06-10T10:03:50;100266.78;;;29.21;51.07
75936;BME280;64614;32.062;34.834;2023-06-10T10:06:17;100273.34;;;29.13;51.25
75936;BME280;64614;32.062;34.834;2023-06-10T10:08:47;100273.66;;;29.08;51.40
75936;BME280;64614;32.062;34.834;2023-06-10T10:11:16;100268.88;;;29.05;51.17
75936;BME280;64614;32.062;34.834;2023-06-10T10:13:45;100272.59;;;28.93;50.70
75936;BME280;64614;32.062;34.834;2023-06-10T10:16:29;100276.53;;;28.92;51.41
75936;BME280;64614;32.062;34.834;2023-06-10T10:18:57;100267.66;;;28.83;51.54
75936;BME280;64614;32.062;34.834;2023-06-10T10:21:25;100278.41;;;28.88;51.61
75936;BME280;64614;32.062;34.834;2023-06-10T10:24:07;100269.84;;;28.73;51.15
75936;BME280;64614;32.062;34.834;2023-06-10T10:26:37;100263.31;;;28.66;51.03
75936;BME280;64614;32.062;34.834;2023-06-10T10:29:23;100273.66;;;28.69;51.55
75936;BME280;64614;32.062;34.834;2023-06-10T10:31:54;100261.66;;;28.61;51.61
75936;BME280;64614;32.062;34.834;2023-06-10T10:34:34;100262.47;;;28.61;51.45
75936;BME280;64614;32.062;34.834;2023-06-10T10:37:01;100260.28;;;28.51;51.61
75936;BME280;64614;32.062;34.834;2023-06-10T10:39:27;100268.19;;;28.53;52.03
75936;BME280;64614;32.062;34.834;2023-06-10T10:41:54;100259.13;;;28.52;52.27
75936;BME280;64614;32.062;34.834;2023-06-10T10:44:21;100266.16;;;28.50;51.49
75936;BME280;64614;32.062;34.834;2023-06-10T10:46:51;100265.28;;;28.45;51.58
75936;BME280;64614;32.062;34.834;2023-06-10T10:49:20;100261.28;;;28.43;52.04
75936;BME280;64614;32.062;34.834;2023-06-10T10:51:57;100266.81;;;28.43;51.98
75936;BME280;64614;32.062;34.834;2023-06-10T10:54:36;100264.84;;;28.43;52.19
75936;BME280;64614;32.062;34.834;2023-06-10T10:59:52;100256.41;;;28.36;52.18
75936;BME280;64614;32.062;34.834;2023-06-10T11:02:33;100258.72;;;28.34;52.22
75936;BME280;64614;32.062;34.834;2023-06-10T11:05:00;100268.19;;;28.33;52.14
75936;BME280;64614;32.062;34.834;2023-06-10T11:07:26;100268.19;;;28.33;52.20
75936;BME280;64614;32.062;34.834;2023-06-10T11:10:00;100278.34;;;28.29;51.75
75936;BME280;64614;32.062;34.834;2023-06-10T11:12:51;100276.28;;;28.26;52.23
75936;BME280;64614;32.062;34.834;2023-06-10T11:15:23;100271.13;;;28.24;52.10
75936;BME280;64614;32.062;34.834;2023-06-10T11:18:11;100280.66;;;28.27;52.48
75936;BME280;64614;32.062;34.834;2023-06-10T11:26:12;100276.13;;;28.19;52.00
75936;BME280;64614;32.062;34.834;2023-06-10T11:28:40;100277.28;;;28.18;51.97
75936;BME280;64614;32.062;34.834;2023-06-10T11:31:09;100271.78;;;28.18;52.35
75936;BME280;64614;32.062;34.834;2023-06-10T11:33:44;100276.13;;;28.19;52.06
75936;BME280;64614;32.062;34.834;2023-06-10T11:36:11;100271.44;;;28.19;52.01
75936;BME280;64614;32.062;34.834;2023-06-10T11:38:37;100277.28;;;28.18;51.92
75936;BME280;64614;32.062;34.834;2023-06-10T11:41:03;100267.50;;;28.20;52.05
75936;BME280;64614;32.062;34.834;2023-06-10T11:43:29;100268.31;;;28.21;52.08
75936;BME280;64614;32.062;34.834;2023-06-10T11:45:55;100267.94;;;28.22;52.05
75936;BME280;64614;32.062;34.834;2023-06-10T11:48:21;100278.63;;;28.24;52.04
75936;BME280;64614;32.062;34.834;2023-06-10T11:50:47;100275.50;;;28.25;52.36
75936;BME280;64614;32.062;34.834;2023-06-10T11:53:13;100271.97;;;28.25;52.21
75936;BME280;64614;32.062;34.834;2023-06-10T11:55:43;100274.78;;;28.28;51.93
75936;BME280;64614;32.062;34.834;2023-06-10T11:58:20;100260.16;;;28.28;52.05
75936;BME280;64614;32.062;34.834;2023-06-10T12:00:53;100270.50;;;28.31;51.69
75936;BME280;64614;32.062;34.834;2023-06-10T12:03:20;100276.03;;;28.31;52.36
75936;BME280;64614;32.062;34.834;2023-06-10T12:06:01;100263.44;;;28.34;51.98
75936;BME280;64614;32.062;34.834;2023-06-10T12:08:29;100258.72;;;28.34;52.33
75936;BME280;64614;32.062;34.834;2023-06-10T12:10:56;100262.28;;;28.35;52.17
75936;BME280;64614;32.062;34.834;2023-06-10T12:13:23;100267.91;;;28.38;52.39
75936;BME280;64614;32.062;34.834;2023-06-10T12:15:52;100256.84;;;28.38;52.20
75936;BME280;64614;32.062;34.834;2023-06-10T12:18:19;100271.09;;;28.40;52.34
75936;BME280;64614;32.062;34.834;2023-06-10T12:20:46;100267.59;;;28.43;51.97
75936;BME280;64614;32.062;34.834;2023-06-10T12:23:12;100269.19;;;28.44;51.95
75936;BME280;64614;32.062;34.834;2023-06-10T12:25:38;100263.34;;;28.46;52.52
75936;BME280;64614;32.062;34.834;2023-06-10T12:28:05;100256.66;;;28.47;52.29
75936;BME280;64614;32.062;34.834;2023-06-10T12:30:32;100269.28;;;28.48;52.34
75936;BME280;64614;32.062;34.834;2023-06-10T12:32:58;100273.28;;;28.51;52.15
75936;BME280;64614;32.062;34.834;2023-06-10T12:35:26;100264.63;;;28.52;52.20
75936;BME280;64614;32.062;34.834;2023-06-10T12:40:37;100263.84;;;28.52;52.27
75936;BME280;64614;32.062;34.834;2023-06-10T12:43:03;100265.50;;;28.56;52.43
75936;BME280;64614;32.062;34.834;2023-06-10T12:45:31;100262.41;;;28.58;52.52
75936;BME280;64614;32.062;34.834;2023-06-10T12:48:32;100263.56;;;28.57;53.44
75936;BME280;64614;32.062;34.834;2023-06-10T12:50:58;100265.16;;;28.58;53.71
75936;BME280;64614;32.062;34.834;2023-06-10T12:53:24;100260.41;;;28.58;53.72
75936;BME280;64614;32.062;34.834;2023-06-10T12:55:53;100256.88;;;28.58;53.93
75936;BME280;64614;32.062;34.834;2023-06-10T12:58:20;100264.00;;;28.59;54.04
75936;BME280;64614;32.062;34.834;2023-06-10T13:00:45;100265.22;;;28.61;54.75